sensor_id;sensor_type;location;lat;lon;timestamp;pressure;altitude;pressure_sealevel;temperature
6550;BMP280;15142;48.888;9.134;2023-02-28T00:00:13;98748.09;;;-1.03
6550;BMP280;15142;48.888;9.134;2023-02-28T00:02:41;98750.75;;;-1.04
6550;BMP280;15142;48.888;9.134;2023-02-28T00:05:10;98750.59;;;-1.03
6550;BMP280;15142;48.888;9.134;2023-02-28T00:07:37;98755.00;;;-1.05
6550;BMP280;15142;48.888;9.134;2023-02-28T00:10:08;98750.00;;;-1.05
6550;BMP280;15142;48.888;9.134;2023-02-28T00:12:36;98749.06;;;-1.04
6550;BMP280;15142;48.888;9.134;2023-02-28T00:15:06;98745.34;;;-1.08
6550;BMP280;15142;48.888;9.134;2023-02-28T00:17:33;98747.47;;;-1.05
6550;BMP280;15142;48.888;9.134;2023-02-28T00:19:59;98738.59;;;-1.07
6550;BMP280;15142;48.888;9.134;2023-02-28T00:22:35;98740.66;;;-1.10
6550;BMP280;15142;48.888;9.134;2023-02-28T00:25:02;98746.28;;;-1.09
6550;BMP280;15142;48.888;9.134;2023-02-28T00:27:31;98737.84;;;-1.08
6550;BMP280;15142;48.888;9.134;2023-02-28T00:29:57;98749.91;;;-1.11
6550;BMP280;15142;48.888;9.134;2023-02-28T00:32:24;98742.25;;;-1.09
6550;BMP280;15142;48.888;9.134;2023-02-28T00:34:50;98743.94;;;-1.10
6550;BMP280;15142;48.888;9.134;2023-02-28T00:37:17;98741.81;;;-1.13
6550;BMP280;15142;48.888;9.134;2023-02-28T00:39:44;98749.47;;;-1.14
6550;BMP280;15142;48.888;9.134;2023-02-28T00:42:10;98749.66;;;-1.16
6550;BMP280;15142;48.888;9.134;2023-02-28T00:44:38;98748.72;;;-1.15
6550;BMP280;15142;48.888;9.134;2023-02-28T00:47:05;98751.38;;;-1.16
6550;BMP280;15142;48.888;9.134;2023-02-28T00:49:32;98744.84;;;-1.17
6550;BMP280;15142;48.888;9.134;2023-02-28T00:51:58;98742.94;;;-1.15
6550;BMP280;15142;48.888;9.134;2023-02-28T00:54:25;98747.16;;;-1.16
6550;BMP280;15142;48.888;9.134;2023-02-28T00:56:52;98739.03;;;-1.18
6550;BMP280;15142;48.888;9.134;2023-02-28T00:59:18;98734.38;;;-1.21
6550;BMP280;15142;48.888;9.134;2023-02-28T01:01:47;98744.03;;;-1.18
6550;BMP280;15142;48.888;9.134;2023-02-28T01:04:14;98743.28;;;-1.18
6550;BMP280;15142;48.888;9.134;2023-02-28T01:06:41;98732.41;;;-1.25
6550;BMP280;15142;48.888;9.134;2023-02-28T01:09:10;98743.63;;;-1.21
6550;BMP280;15142;48.888;9.134;2023-02-28T01:11:37;98737.81;;;-1.22
6550;BMP280;15142;48.888;9.134;2023-02-28T01:14:04;98737.06;;;-1.22
6550;BMP280;15142;48.888;9.134;2023-02-28T01:16:31;98734.72;;;-1.24
6550;BMP280;15142;48.888;9.134;2023-02-28T01:18:59;98728.34;;;-1.26
6550;BMP280;15142;48.888;9.134;2023-02-28T01:21:25;98733.53;;;-1.28
6550;BMP280;15142;48.888;9.134;2023-02-28T01:23:52;98726.50;;;-1.32
6550;BMP280;15142;48.888;9.134;2023-02-28T01:26:20;98728.06;;;-1.31
6550;BMP280;15142;48.888;9.134;2023-02-28T01:28:48;98734.63;;;-1.30
6550;BMP280;15142;48.888;9.134;2023-02-28T01:31:15;98737.75;;;-1.28
6550;BMP280;15142;48.888;9.134;2023-02-28T01:33:41;98727.75;;;-1.28
6550;BMP280;15142;48.888;9.134;2023-02-28T01:36:11;98730.25;;;-1.28
6550;BMP280;15142;48.888;9.134;2023-02-28T01:38:38;98727.41;;;-1.25
6550;BMP280;15142;48.888;9.134;2023-02-28T01:41:06;98725.25;;;-1.28
6550;BMP280;15142;48.888;9.134;2023-02-28T01:43:53;98724.00;;;-1.32
6550;BMP280;15142;48.888;9.134;2023-02-28T01:46:20;98737.81;;;-1.36
6550;BMP280;15142;48.888;9.134;2023-02-28T01:48:50;98731.09;;;-1.36
6550;BMP280;15142;48.888;9.134;2023-02-28T01:51:22;98732.63;;;-1.35
6550;BMP280;15142;48.888;9.134;2023-02-28T01:53:55;98729.38;;;-1.35
6550;BMP280;15142;48.888;9.134;2023-02-28T01:56:25;98729.00;;;-1.32
6550;BMP280;15142;48.888;9.134;2023-02-28T01:58:54;98732.47;;;-1.33
6550;BMP280;15142;48.888;9.134;2023-02-28T02:01:23;98726.88;;;-1.35
6550;BMP280;15142;48.888;9.134;2023-02-28T02:03:54;98734.97;;;-1.33
6550;BMP280;15142;48.888;9.134;2023-02-28T02:06:25;98728.75;;;-1.37
6550;BMP280;15142;48.888;9.134;2023-02-28T02:08:54;98722.78;;;-1.36
6550;BMP280;15142;48.888;9.134;2023-02-28T02:11:22;98719.69;;;-1.38
6550;BMP280;15142;48.888;9.134;2023-02-28T02:14:07;98713.75;;;-1.37
6550;BMP280;15142;48.888;9.134;2023-02-28T02:16:46;98717.19;;;-1.38
6550;BMP280;15142;48.888;9.134;2023-02-28T02:19:29;98712.53;;;-1.41
6550;BMP280;15142;48.888;9.134;2023-02-28T02:22:17;98712.72;;;-1.43
6550;BMP280;15142;48.888;9.134;2023-02-28T02:24:56;98711.19;;;-1.44
6550;BMP280;15142;48.888;9.134;2023-02-28T02:27:38;98714.44;;;-1.43
6550;BMP280;15142;48.888;9.134;2023-02-28T02:30:37;98708.69;;;-1.44
6550;BMP280;15142;48.888;9.134;2023-02-28T02:33:24;98707.53;;;-1.41
6550;BMP280;15142;48.888;9.134;2023-02-28T02:35:55;98706.94;;;-1.43
6550;BMP280;15142;48.888;9.134;2023-02-28T02:38:31;98702.88;;;-1.44
6550;BMP280;15142;48.888;9.134;2023-02-28T02:41:05;98700.28;;;-1.50
6550;BMP280;15142;48.888;9.134;2023-02-28T02:43:36;98704.53;;;-1.51
6550;BMP280;15142;48.888;9.134;2023-02-28T02:46:10;98707.03;;;-1.51
6550;BMP280;15142;48.888;9.134;2023-02-28T02:48:40;98703.56;;;-1.50
6550;BMP280;15142;48.888;9.134;2023-02-28T02:51:12;98704.25;;;-1.56
6550;BMP280;15142;48.888;9.134;2023-02-28T02:53:43;98709.69;;;-1.52
6550;BMP280;15142;48.888;9.134;2023-02-28T02:56:12;98712.63;;;-1.49
6550;BMP280;15142;48.888;9.134;2023-02-28T02:58:41;98704.53;;;-1.51
6550;BMP280;15142;48.888;9.134;2023-02-28T03:01:12;98707.03;;;-1.51
6550;BMP280;15142;48.888;9.134;2023-02-28T03:03:41;98707.72;;;-1.57
6550;BMP280;15142;48.888;9.134;2023-02-28T03:06:09;98694.94;;;-1.62
6550;BMP280;15142;48.888;9.134;2023-02-28T03:08:37;98701.16;;;-1.58
6550;BMP280;15142;48.888;9.134;2023-02-28T03:11:05;98700.81;;;-1.55
6550;BMP280;15142;48.888;9.134;2023-02-28T03:13:54;98710.56;;;-1.46
6550;BMP280;15142;48.888;9.134;2023-02-28T03:16:34;98712.88;;;-1.44
6550;BMP280;15142;48.888;9.134;2023-02-28T03:19:17;98711.50;;;-1.47
6550;BMP280;15142;48.888;9.134;2023-02-28T03:21:58;98707.47;;;-1.47
6550;BMP280;15142;48.888;9.134;2023-02-28T03:24:32;98709.78;;;-1.46
6550;BMP280;15142;48.888;9.134;2023-02-28T03:27:06;98715.13;;;-1.49
6550;BMP280;15142;48.888;9.134;2023-02-28T03:29:37;98710.75;;;-1.47
6550;BMP280;15142;48.888;9.134;2023-02-28T03:32:08;98714.38;;;-1.49
6550;BMP280;15142;48.888;9.134;2023-02-28T03:34:41;98707.19;;;-1.52
6550;BMP280;15142;48.888;9.134;2023-02-28T03:37:14;98711.34;;;-1.45
6550;BMP280;15142;48.888;9.134;2023-02-28T03:39:44;98706.94;;;-1.43
6550;BMP280;15142;48.888;9.134;2023-02-28T03:42:14;98713.84;;;-1.45
6550;BMP280;15142;48.888;9.134;2023-02-28T03:44:44;98712.19;;;-1.38
6550;BMP280;15142;48.888;9.134;2023-02-28T03:47:14;98712.19;;;-1.38
6550;BMP280;15142;48.888;9.134;2023-02-28T03:49:45;98714.97;;;-1.33
6550;BMP280;15142;48.888;9.134;2023-02-28T03:52:14;98706.94;;;-1.29
6550;BMP280;15142;48.888;9.134;2023-02-28T03:54:45;98700.22;;;-1.28
6550;BMP280;15142;48.888;9.134;2023-02-28T03:57:16;98703.16;;;-1.25
6550;BMP280;15142;48.888;9.134;2023-02-28T03:59:47;98708.59;;;-1.21
6550;BMP280;15142;48.888;9.134;2023-02-28T04:02:16;98709.78;;;-1.17
6550;BMP280;15142;48.888;9.134;2023-02-28T04:04:43;98703.06;;;-1.17
6550;BMP280;15142;48.888;9.134;2023-02-28T04:07:15;98712.91;;;-1.15
6550;BMP280;15142;48.888;9.134;2023-02-28T04:09:41;98711.94;;;-1.14
6550;BMP280;15142;48.888;9.134;2023-02-28T04:12:09;98717.38;;;-1.11
6550;BMP280;15142;48.888;9.134;2023-02-28T04:14:36;98713.41;;;-1.06
6550;BMP280;15142;48.888;9.134;2023-02-28T04:17:02;98722.44;;;-1.05
6550;BMP280;15142;48.888;9.134;2023-02-28T04:19:29;98719.94;;;-1.05
6550;BMP280;15142;48.888;9.134;2023-02-28T04:21:56;98726.75;;;-0.99
6550;BMP280;15142;48.888;9.134;2023-02-28T04:24:26;98723.13;;;-0.96
6550;BMP280;15142;48.888;9.134;2023-02-28T04:26:54;98728.22;;;-0.90
6550;BMP280;15142;48.888;9.134;2023-02-28T04:29:23;98729.06;;;-0.83
6550;BMP280;15142;48.888;9.134;2023-02-28T04:31:50;98722.66;;;-0.85
6550;BMP280;15142;48.888;9.134;2023-02-28T04:34:18;98721.31;;;-0.88
6550;BMP280;15142;48.888;9.134;2023-02-28T04:36:46;98718.19;;;-0.90
6550;BMP280;15142;48.888;9.134;2023-02-28T04:39:14;98718.25;;;-0.83
6550;BMP280;15142;48.888;9.134;2023-02-28T04:41:42;98718.06;;;-0.82
6550;BMP280;15142;48.888;9.134;2023-02-28T04:44:08;98713.41;;;-0.85
6550;BMP280;15142;48.888;9.134;2023-02-28T04:46:35;98708.59;;;-0.86
6550;BMP280;15142;48.888;9.134;2023-02-28T04:49:02;98712.28;;;-0.82
6550;BMP280;15142;48.888;9.134;2023-02-28T04:51:29;98703.19;;;-0.90
6550;BMP280;15142;48.888;9.134;2023-02-28T04:53:56;98715.56;;;-0.82
6550;BMP280;15142;48.888;9.134;2023-02-28T04:56:22;98717.47;;;-0.84
6550;BMP280;15142;48.888;9.134;2023-02-28T04:58:50;98715.56;;;-0.82
6550;BMP280;15142;48.888;9.134;2023-02-28T05:01:23;98716.53;;;-0.83
6550;BMP280;15142;48.888;9.134;2023-02-28T05:03:51;98714.78;;;-0.82
6550;BMP280;15142;48.888;9.134;2023-02-28T05:06:19;98726.00;;;-0.78
6550;BMP280;15142;48.888;9.134;2023-02-28T05:08:46;98713.31;;;-0.77
6550;BMP280;15142;48.888;9.134;2023-02-28T05:11:16;98713.31;;;-0.77
6550;BMP280;15142;48.888;9.134;2023-02-28T05:13:43;98715.44;;;-0.74
6550;BMP280;15142;48.888;9.134;2023-02-28T05:16:11;98708.31;;;-0.77
6550;BMP280;15142;48.888;9.134;2023-02-28T05:18:38;98720.81;;;-0.77
6550;BMP280;15142;48.888;9.134;2023-02-28T05:21:05;98711.75;;;-0.78
6550;BMP280;15142;48.888;9.134;2023-02-28T05:23:32;98722.91;;;-0.80
6550;BMP280;15142;48.888;9.134;2023-02-28T05:25:58;98726.19;;;-0.80
6550;BMP280;15142;48.888;9.134;2023-02-28T05:28:25;98723.66;;;-0.80
6550;BMP280;15142;48.888;9.134;2023-02-28T05:30:51;98720.22;;;-0.79
6550;BMP280;15142;48.888;9.134;2023-02-28T05:33:19;98726.78;;;-0.78
6550;BMP280;15142;48.888;9.134;2023-02-28T05:35:46;98722.91;;;-0.80
6550;BMP280;15142;48.888;9.134;2023-02-28T05:38:12;98723.66;;;-0.80
6550;BMP280;15142;48.888;9.134;2023-02-28T05:40:39;98737.75;;;-0.79
6550;BMP280;15142;48.888;9.134;2023-02-28T05:43:10;98723.16;;;-0.75
6550;BMP280;15142;48.888;9.134;2023-02-28T05:45:37;98730.09;;;-0.77
6550;BMP280;15142;48.888;9.134;2023-02-28T05:48:03;98726.00;;;-0.78
6550;BMP280;15142;48.888;9.134;2023-02-28T05:50:31;98738.91;;;-0.81
6550;BMP280;15142;48.888;9.134;2023-02-28T05:52:58;98731.63;;;-0.76
6550;BMP280;15142;48.888;9.134;2023-02-28T05:55:24;98742.06;;;-0.73
6550;BMP280;15142;48.888;9.134;2023-02-28T05:57:51;98735.25;;;-0.79
6550;BMP280;15142;48.888;9.134;2023-02-28T06:00:18;98733.94;;;-0.75
6550;BMP280;15142;48.888;9.134;2023-02-28T06:02:45;98735.84;;;-0.77
6550;BMP280;15142;48.888;9.134;2023-02-28T06:05:14;98736.63;;;-0.76
6550;BMP280;15142;48.888;9.134;2023-02-28T06:07:42;98738.97;;;-0.75
6550;BMP280;15142;48.888;9.134;2023-02-28T06:10:10;98750.34;;;-0.73
6550;BMP280;15142;48.888;9.134;2023-02-28T06:12:38;98743.19;;;-0.75
6550;BMP280;15142;48.888;9.134;2023-02-28T06:15:07;98740.31;;;-0.73
6550;BMP280;15142;48.888;9.134;2023-02-28T06:17:37;98744.56;;;-0.73
6550;BMP280;15142;48.888;9.134;2023-02-28T06:20:05;98746.47;;;-0.75
6550;BMP280;15142;48.888;9.134;2023-02-28T06:22:32;98756.13;;;-0.72
6550;BMP280;15142;48.888;9.134;2023-02-28T06:25:00;98747.06;;;-0.73
6550;BMP280;15142;48.888;9.134;2023-02-28T06:27:26;98763.91;;;-0.67
6550;BMP280;15142;48.888;9.134;2023-02-28T06:29:54;98757.75;;;-0.65
6550;BMP280;15142;48.888;9.134;2023-02-28T06:32:21;98755.09;;;-0.63
6550;BMP280;15142;48.888;9.134;2023-02-28T06:34:47;98760.16;;;-0.57
6550;BMP280;15142;48.888;9.134;2023-02-28T06:37:15;98754.38;;;-0.57
6550;BMP280;15142;48.888;9.134;2023-02-28T06:39:42;98762.50;;;-0.55
6550;BMP280;15142;48.888;9.134;2023-02-28T06:42:10;98773.88;;;-0.53
6550;BMP280;15142;48.888;9.134;2023-02-28T06:44:36;98769.63;;;-0.52
6550;BMP280;15142;48.888;9.134;2023-02-28T06:47:13;98769.91;;;-0.47
6550;BMP280;15142;48.888;9.134;2023-02-28T06:49:47;98777.16;;;-0.52
6550;BMP280;15142;48.888;9.134;2023-02-28T06:52:14;98778.03;;;-0.45
6550;BMP280;15142;48.888;9.134;2023-02-28T06:54:41;98785.75;;;-0.40
6550;BMP280;15142;48.888;9.134;2023-02-28T06:57:07;98778.50;;;-0.36
6550;BMP280;15142;48.888;9.134;2023-02-28T06:59:35;98785.44;;;-0.38
6550;BMP280;15142;48.888;9.134;2023-02-28T07:02:02;98780.13;;;-0.28
6550;BMP280;15142;48.888;9.134;2023-02-28T07:04:29;98777.44;;;-0.27
6550;BMP280;15142;48.888;9.134;2023-02-28T07:06:55;98779.25;;;-0.21
6550;BMP280;15142;48.888;9.134;2023-02-28T07:09:22;98781.53;;;-0.26
6550;BMP280;15142;48.888;9.134;2023-02-28T07:11:48;98790.41;;;-0.23
6550;BMP280;15142;48.888;9.134;2023-02-28T07:14:15;98780.94;;;-0.28
6550;BMP280;15142;48.888;9.134;2023-02-28T07:16:43;98790.06;;;-0.35
6550;BMP280;15142;48.888;9.134;2023-02-28T07:19:10;98794.59;;;-0.44
6550;BMP280;15142;48.888;9.134;2023-02-28T07:21:37;98798.56;;;-0.36
6550;BMP280;15142;48.888;9.134;2023-02-28T07:24:04;98786.88;;;-0.29
6550;BMP280;15142;48.888;9.134;2023-02-28T07:26:31;98796.66;;;-0.34
6550;BMP280;15142;48.888;9.134;2023-02-28T07:28:59;98796.72;;;-0.27
6550;BMP280;15142;48.888;9.134;2023-02-28T07:31:25;98791.78;;;-0.21
6550;BMP280;15142;48.888;9.134;2023-02-28T07:33:53;98793.25;;;-0.26
6550;BMP280;15142;48.888;9.134;2023-02-28T07:36:21;98789.81;;;-0.25
6550;BMP280;15142;48.888;9.134;2023-02-28T07:38:48;98798.03;;;-0.31
6550;BMP280;15142;48.888;9.134;2023-02-28T07:41:16;98796.97;;;-0.37
6550;BMP280;15142;48.888;9.134;2023-02-28T07:43:43;98800.97;;;-0.28
6550;BMP280;15142;48.888;9.134;2023-02-28T07:46:12;98810.63;;;-0.25
6550;BMP280;15142;48.888;9.134;2023-02-28T07:48:40;98795.84;;;-0.20
6550;BMP280;15142;48.888;9.134;2023-02-28T07:51:08;98806.34;;;-0.10
6550;BMP280;15142;48.888;9.134;2023-02-28T07:53:34;98802.00;;;-0.01
6550;BMP280;15142;48.888;9.134;2023-02-28T07:56:02;98801.63;;;0.01
6550;BMP280;15142;48.888;9.134;2023-02-28T07:58:29;98810.28;;;-0.01
6550;BMP280;15142;48.888;9.134;2023-02-28T08:00:56;98809.69;;;-0.03
6550;BMP280;15142;48.888;9.134;2023-02-28T08:03:23;98802.38;;;0.02
6550;BMP280;15142;48.888;9.134;2023-02-28T08:05:50;98802.34;;;-0.04
6550;BMP280;15142;48.888;9.134;2023-02-28T08:08:19;98798.34;;;0.01
6550;BMP280;15142;48.888;9.134;2023-02-28T08:10:45;98803.72;;;-0.02
6550;BMP280;15142;48.888;9.134;2023-02-28T08:13:12;98801.28;;;0.04
6550;BMP280;15142;48.888;9.134;2023-02-28T08:15:40;98814.00;;;0.03
6550;BMP280;15142;48.888;9.134;2023-02-28T08:18:07;98814.63;;;0.11
6550;BMP280;15142;48.888;9.134;2023-02-28T08:20:33;98807.88;;;0.12
6550;BMP280;15142;48.888;9.134;2023-02-28T08:23:00;98807.22;;;0.24
6550;BMP280;15142;48.888;9.134;2023-02-28T08:25:28;98819.41;;;0.27
6550;BMP280;15142;48.888;9.134;2023-02-28T08:27:54;98817.59;;;0.21
6550;BMP280;15142;48.888;9.134;2023-02-28T08:30:21;98824.97;;;0.23
6550;BMP280;15142;48.888;9.134;2023-02-28T08:32:48;98816.41;;;0.17
6550;BMP280;15142;48.888;9.134;2023-02-28T08:35:14;98812.28;;;0.10
6550;BMP280;15142;48.888;9.134;2023-02-28T08:37:41;98818.34;;;0.15
6550;BMP280;15142;48.888;9.134;2023-02-28T08:40:08;98818.03;;;0.25
6550;BMP280;15142;48.888;9.134;2023-02-28T08:42:37;98820.84;;;0.42
6550;BMP280;15142;48.888;9.134;2023-02-28T08:45:04;98818.00;;;0.52
6550;BMP280;15142;48.888;9.134;2023-02-28T08:47:31;98819.28;;;0.41
6550;BMP280;15142;48.888;9.134;2023-02-28T08:49:58;98821.13;;;0.27
6550;BMP280;15142;48.888;9.134;2023-02-28T08:52:24;98827.53;;;0.35
6550;BMP280;15142;48.888;9.134;2023-02-28T08:54:51;98829.00;;;0.51
6550;BMP280;15142;48.888;9.134;2023-02-28T08:57:17;98828.25;;;0.50
6550;BMP280;15142;48.888;9.134;2023-02-28T08:59:45;98825.13;;;0.48
6550;BMP280;15142;48.888;9.134;2023-02-28T09:02:12;98828.56;;;0.68
6550;BMP280;15142;48.888;9.134;2023-02-28T09:04:39;98829.00;;;0.78
6550;BMP280;15142;48.888;9.134;2023-02-28T09:07:06;98833.78;;;0.73
6550;BMP280;15142;48.888;9.134;2023-02-28T09:09:33;98828.19;;;0.71
6550;BMP280;15142;48.888;9.134;2023-02-28T09:11:59;98830.41;;;0.87
6550;BMP280;15142;48.888;9.134;2023-02-28T09:14:26;98829.22;;;0.83
6550;BMP280;15142;48.888;9.134;2023-02-28T09:16:54;98819.47;;;0.67
6550;BMP280;15142;48.888;9.134;2023-02-28T09:19:21;98821.13;;;0.87
6550;BMP280;15142;48.888;9.134;2023-02-28T09:21:48;98826.84;;;1.08
6550;BMP280;15142;48.888;9.134;2023-02-28T09:24:14;98827.06;;;1.13
6550;BMP280;15142;48.888;9.134;2023-02-28T09:26:41;98817.81;;;1.20
6550;BMP280;15142;48.888;9.134;2023-02-28T09:29:08;98820.34;;;1.33
6550;BMP280;15142;48.888;9.134;2023-02-28T09:31:34;98828.53;;;1.48
6550;BMP280;15142;48.888;9.134;2023-02-28T09:34:03;98824.25;;;1.42
6550;BMP280;15142;48.888;9.134;2023-02-28T09:36:30;98834.34;;;1.55
6550;BMP280;15142;48.888;9.134;2023-02-28T09:38:58;98832.41;;;1.57
6550;BMP280;15142;48.888;9.134;2023-02-28T09:41:26;98820.59;;;1.44
6550;BMP280;15142;48.888;9.134;2023-02-28T09:43:58;98828.16;;;1.51
6550;BMP280;15142;48.888;9.134;2023-02-28T09:46:30;98829.94;;;1.70
6550;BMP280;15142;48.888;9.134;2023-02-28T09:49:00;98833.03;;;1.72
6550;BMP280;15142;48.888;9.134;2023-02-28T09:51:46;98828.63;;;1.80
6550;BMP280;15142;48.888;9.134;2023-02-28T09:54:18;98844.47;;;1.74
6550;BMP280;15142;48.888;9.134;2023-02-28T09:56:48;98834.16;;;1.50
6550;BMP280;15142;48.888;9.134;2023-02-28T09:59:28;98833.44;;;1.75
6550;BMP280;15142;48.888;9.134;2023-02-28T10:02:00;98836.91;;;1.68
6550;BMP280;15142;48.888;9.134;2023-02-28T10:04:38;98840.78;;;1.64
6550;BMP280;15142;48.888;9.134;2023-02-28T10:07:16;98835.00;;;1.76
6550;BMP280;15142;48.888;9.134;2023-02-28T10:09:47;98845.44;;;1.92
6550;BMP280;15142;48.888;9.134;2023-02-28T10:12:16;98838.84;;;1.85
6550;BMP280;15142;48.888;9.134;2023-02-28T10:14:46;98844.28;;;2.01
6550;BMP280;15142;48.888;9.134;2023-02-28T10:17:17;98839.47;;;2.19
6550;BMP280;15142;48.888;9.134;2023-02-28T10:19:51;98842.00;;;2.32
6550;BMP280;15142;48.888;9.134;2023-02-28T10:22:22;98847.38;;;2.35
6550;BMP280;15142;48.888;9.134;2023-02-28T10:24:53;98850.69;;;2.48
6550;BMP280;15142;48.888;9.134;2023-02-28T10:27:23;98848.56;;;2.45
6550;BMP280;15142;48.888;9.134;2023-02-28T10:29:51;98843.91;;;2.49
6550;BMP280;15142;48.888;9.134;2023-02-28T10:32:19;98853.97;;;2.49
6550;BMP280;15142;48.888;9.134;2023-02-28T10:34:51;98855.13;;;2.66
6550;BMP280;15142;48.888;9.134;2023-02-28T10:37:20;98851.22;;;2.76
6550;BMP280;15142;48.888;9.134;2023-02-28T10:39:47;98855.09;;;2.72
6550;BMP280;15142;48.888;9.134;2023-02-28T10:42:20;98862.88;;;2.58
6550;BMP280;15142;48.888;9.134;2023-02-28T10:44:47;98851.44;;;2.68
6550;BMP280;15142;48.888;9.134;2023-02-28T10:47:15;98851.16;;;2.95
6550;BMP280;15142;48.888;9.134;2023-02-28T10:49:47;98856.09;;;3.27
6550;BMP280;15142;48.888;9.134;2023-02-28T10:52:34;98844.94;;;3.41
6550;BMP280;15142;48.888;9.134;2023-02-28T10:55:19;98836.53;;;3.60
6550;BMP280;15142;48.888;9.134;2023-02-28T10:57:47;98838.22;;;3.66
6550;BMP280;15142;48.888;9.134;2023-02-28T11:00:16;98834.56;;;3.62
6550;BMP280;15142;48.888;9.134;2023-02-28T11:02:43;98840.38;;;3.32
6550;BMP280;15142;48.888;9.134;2023-02-28T11:05:24;98843.00;;;3.00
6550;BMP280;15142;48.888;9.134;2023-02-28T11:07:53;98824.00;;;3.04
6550;BMP280;15142;48.888;9.134;2023-02-28T11:10:24;98842.03;;;3.44
6550;BMP280;15142;48.888;9.134;2023-02-28T11:12:54;98834.84;;;3.47
6550;BMP280;15142;48.888;9.134;2023-02-28T11:15:24;98831.69;;;3.21
6550;BMP280;15142;48.888;9.134;2023-02-28T11:17:55;98829.44;;;3.01
6550;BMP280;15142;48.888;9.134;2023-02-28T11:20:25;98829.44;;;3.01
6550;BMP280;15142;48.888;9.134;2023-02-28T11:22:54;98830.13;;;3.20
6550;BMP280;15142;48.888;9.134;2023-02-28T11:25:24;98822.03;;;3.43
6550;BMP280;15142;48.888;9.134;2023-02-28T11:27:53;98823.00;;;3.48
6550;BMP280;15142;48.888;9.134;2023-02-28T11:30:26;98816.97;;;3.80
6550;BMP280;15142;48.888;9.134;2023-02-28T11:32:53;98823.47;;;3.93
6550;BMP280;15142;48.888;9.134;2023-02-28T11:35:24;98817.78;;;4.22
6550;BMP280;15142;48.888;9.134;2023-02-28T11:37:53;98814.53;;;4.33
6550;BMP280;15142;48.888;9.134;2023-02-28T11:40:28;98812.28;;;4.96
6550;BMP280;15142;48.888;9.134;2023-02-28T11:43:08;98817.38;;;5.77
6550;BMP280;15142;48.888;9.134;2023-02-28T11:45:45;98813.13;;;6.11
6550;BMP280;15142;48.888;9.134;2023-02-28T11:48:20;98820.25;;;5.91
6550;BMP280;15142;48.888;9.134;2023-02-28T11:51:05;98809.03;;;7.59
6550;BMP280;15142;48.888;9.134;2023-02-28T11:53:50;98798.72;;;6.78
6550;BMP280;15142;48.888;9.134;2023-02-28T11:56:23;98797.66;;;6.74
6550;BMP280;15142;48.888;9.134;2023-02-28T11:59:01;98804.44;;;6.46
6550;BMP280;15142;48.888;9.134;2023-02-28T12:01:40;98801.34;;;7.54
6550;BMP280;15142;48.888;9.134;2023-02-28T12:04:20;98795.34;;;7.60
6550;BMP280;15142;48.888;9.134;2023-02-28T12:06:52;98802.78;;;7.67
6550;BMP280;15142;48.888;9.134;2023-02-28T12:09:35;98802.72;;;7.29
6550;BMP280;15142;48.888;9.134;2023-02-28T12:12:15;98790.91;;;6.41
6550;BMP280;15142;48.888;9.134;2023-02-28T12:15:05;98798.31;;;7.57
6550;BMP280;15142;48.888;9.134;2023-02-28T12:17:51;98806.38;;;8.03
6550;BMP280;15142;48.888;9.134;2023-02-28T12:20:25;98787.50;;;8.89
6550;BMP280;15142;48.888;9.134;2023-02-28T12:23:05;98784.31;;;8.51
6550;BMP280;15142;48.888;9.134;2023-02-28T12:25:54;98782.31;;;8.79
6550;BMP280;15142;48.888;9.134;2023-02-28T12:28:26;98782.31;;;9.05
6550;BMP280;15142;48.888;9.134;2023-02-28T12:30:59;98777.53;;;8.35
6550;BMP280;15142;48.888;9.134;2023-02-28T12:33:32;98783.28;;;8.73
6550;BMP280;15142;48.888;9.134;2023-02-28T12:36:03;98776.84;;;9.58
6550;BMP280;15142;48.888;9.134;2023-02-28T12:38:36;98792.25;;;9.06
6550;BMP280;15142;48.888;9.134;2023-02-28T12:41:11;98773.63;;;9.32
6550;BMP280;15142;48.888;9.134;2023-02-28T12:43:42;98778.53;;;9.07
6550;BMP280;15142;48.888;9.134;2023-02-28T12:46:14;98770.38;;;9.05
6550;BMP280;15142;48.888;9.134;2023-02-28T12:48:44;98767.53;;;9.38
6550;BMP280;15142;48.888;9.134;2023-02-28T12:51:13;98761.25;;;9.14
6550;BMP280;15142;48.888;9.134;2023-02-28T12:53:52;98762.53;;;9.48
6550;BMP280;15142;48.888;9.134;2023-02-28T12:56:27;98749.09;;;10.13
6550;BMP280;15142;48.888;9.134;2023-02-28T12:58:59;98759.91;;;9.79
6550;BMP280;15142;48.888;9.134;2023-02-28T13:01:39;98755.13;;;9.92
6550;BMP280;15142;48.888;9.134;2023-02-28T13:04:38;98753.81;;;10.65
6550;BMP280;15142;48.888;9.134;2023-02-28T13:07:25;98755.59;;;9.79
6550;BMP280;15142;48.888;9.134;2023-02-28T13:09:57;98751.75;;;10.52
6550;BMP280;15142;48.888;9.134;2023-02-28T13:12:26;98736.72;;;9.80
6550;BMP280;15142;48.888;9.134;2023-02-28T13:15:04;98736.50;;;8.79
6550;BMP280;15142;48.888;9.134;2023-02-28T13:17:31;98749.13;;;8.69
6550;BMP280;15142;48.888;9.134;2023-02-28T13:19:59;98746.66;;;9.05
6550;BMP280;15142;48.888;9.134;2023-02-28T13:22:40;98750.09;;;9.15
6550;BMP280;15142;48.888;9.134;2023-02-28T13:28:57;98751.59;;;9.11
6550;BMP280;15142;48.888;9.134;2023-02-28T13:31:23;98745.06;;;9.30
6550;BMP280;15142;48.888;9.134;2023-02-28T13:34:06;98740.06;;;9.40
6550;BMP280;15142;48.888;9.134;2023-02-28T13:36:38;98742.47;;;8.89
6550;BMP280;15142;48.888;9.134;2023-02-28T13:39:46;98732.56;;;8.93
6550;BMP280;15142;48.888;9.134;2023-02-28T13:42:32;98731.53;;;8.36
6550;BMP280;15142;48.888;9.134;2023-02-28T13:45:23;98733.78;;;8.12
6550;BMP280;15142;48.888;9.134;2023-02-28T13:47:55;98731.94;;;8.07
6550;BMP280;15142;48.888;9.134;2023-02-28T13:50:28;98731.22;;;7.91
6550;BMP280;15142;48.888;9.134;2023-02-28T13:55:45;98740.84;;;7.51
6550;BMP280;15142;48.888;9.134;2023-02-28T13:58:33;98732.19;;;7.69
6550;BMP280;15142;48.888;9.134;2023-02-28T14:01:14;98730.59;;;7.63
6550;BMP280;15142;48.888;9.134;2023-02-28T14:03:57;98744.63;;;7.49
6550;BMP280;15142;48.888;9.134;2023-02-28T14:06:26;98739.16;;;7.40
6550;BMP280;15142;48.888;9.134;2023-02-28T14:08:59;98739.16;;;7.24
6550;BMP280;15142;48.888;9.134;2023-02-28T14:11:31;98735.28;;;7.06
6550;BMP280;15142;48.888;9.134;2023-02-28T14:13:58;98726.25;;;7.42
6550;BMP280;15142;48.888;9.134;2023-02-28T14:16:27;98741.16;;;7.55
6550;BMP280;15142;48.888;9.134;2023-02-28T14:18:58;98731.59;;;7.62
6550;BMP280;15142;48.888;9.134;2023-02-28T14:21:27;98747.31;;;7.26
6550;BMP280;15142;48.888;9.134;2023-02-28T14:24:19;98735.91;;;7.12
6550;BMP280;15142;48.888;9.134;2023-02-28T14:27:16;98736.75;;;7.02
6550;BMP280;15142;48.888;9.134;2023-02-28T14:30:17;98738.00;;;7.15
6550;BMP280;15142;48.888;9.134;2023-02-28T14:33:00;98735.00;;;7.51
6550;BMP280;15142;48.888;9.134;2023-02-28T14:35:40;98732.53;;;7.56
6550;BMP280;15142;48.888;9.134;2023-02-28T14:38:14;98733.75;;;7.37
6550;BMP280;15142;48.888;9.134;2023-02-28T14:40:44;98736.09;;;6.62
6550;BMP280;15142;48.888;9.134;2023-02-28T14:43:20;98729.63;;;6.43
6550;BMP280;15142;48.888;9.134;2023-02-28T14:45:50;98732.06;;;6.39
6550;BMP280;15142;48.888;9.134;2023-02-28T14:48:19;98734.63;;;6.27
6550;BMP280;15142;48.888;9.134;2023-02-28T14:50:49;98739.94;;;6.14
6550;BMP280;15142;48.888;9.134;2023-02-28T14:53:18;98735.88;;;6.02